createdAt,value
2018-09-29T00:02:24.375Z,11.17
2018-09-29T00:04:53.052Z,11.16
2018-09-29T00:07:21.738Z,11.10
2018-09-29T00:09:50.482Z,11.13
2018-09-29T00:12:19.214Z,11.08
2018-09-29T00:14:48.157Z,11.09
2018-09-29T00:17:16.913Z,11.01
2018-09-29T00:19:45.617Z,10.96
2018-09-29T00:22:14.529Z,10.98
2018-09-29T00:24:43.172Z,10.97
2018-09-29T00:27:11.866Z,10.94
2018-09-29T00:29:40.870Z,10.94
2018-09-29T00:32:09.523Z,10.89
2018-09-29T00:34:38.225Z,10.89
2018-09-29T00:37:07.046Z,10.95
2018-09-29T00:39:35.701Z,10.89
2018-09-29T00:42:04.362Z,10.83
2018-09-29T00:44:33.092Z,10.79
2018-09-29T00:47:01.842Z,10.77
2018-09-29T00:49:30.645Z,10.66
2018-09-29T00:51:59.570Z,10.74
2018-09-29T00:54:28.317Z,10.63
2018-09-29T00:56:57.070Z,10.58
2018-09-29T00:59:26.142Z,10.52
2018-09-29T01:01:54.786Z,10.56
2018-09-29T01:04:23.473Z,10.47
2018-09-29T01:06:52.302Z,10.41
2018-09-29T01:09:21.021Z,10.30
2018-09-29T01:11:49.726Z,10.35
2018-09-29T01:14:18.789Z,10.26
2018-09-29T01:16:47.541Z,10.13
2018-09-29T01:19:16.322Z,10.19
2018-09-29T01:21:45.225Z,10.17
2018-09-29T01:24:14.254Z,10.11
2018-09-29T01:26:42.989Z,10.13
2018-09-29T01:29:11.839Z,9.99
2018-09-29T01:31:40.731Z,10.09
2018-09-29T01:34:09.689Z,10.06
2018-09-29T01:36:38.506Z,9.95
2018-09-29T01:39:08.997Z,9.95
2018-09-29T01:41:37.661Z,10.02
2018-09-29T01:44:06.478Z,9.84
2018-09-29T01:46:35.145Z,9.86
2018-09-29T01:49:04.097Z,9.81
2018-09-29T01:51:33.290Z,9.74
2018-09-29T01:54:01.911Z,9.83
2018-09-29T01:56:31.075Z,9.72
2018-09-29T01:58:59.872Z,9.65
2018-09-29T02:01:28.514Z,9.61
2018-09-29T02:03:57.325Z,9.59
2018-09-29T02:06:25.995Z,9.80
2018-09-29T02:08:54.709Z,9.57
2018-09-29T02:11:23.514Z,9.42
2018-09-29T02:13:52.356Z,9.40
2018-09-29T02:16:21.040Z,9.42
2018-09-29T02:18:50.032Z,9.42
2018-09-29T02:21:18.811Z,9.31
2018-09-29T02:23:47.693Z,9.25
2018-09-29T02:26:16.589Z,9.18
2018-09-29T02:28:45.396Z,9.24
2018-09-29T02:31:14.219Z,9.25
2018-09-29T02:33:43.309Z,9.17
2018-09-29T02:36:11.969Z,9.13
2018-09-29T02:38:40.666Z,9.12
2018-09-29T02:41:09.579Z,9.17
2018-09-29T02:43:38.267Z,9.09
2018-09-29T02:46:06.970Z,9.13
2018-09-29T02:48:35.948Z,9.06
2018-09-29T02:51:04.801Z,9.05
2018-09-29T02:53:33.637Z,9.09
2018-09-29T02:56:02.519Z,9.02
2018-09-29T02:58:31.333Z,9.00
2018-09-29T03:01:00.095Z,8.95
2018-09-29T03:03:28.924Z,8.94
2018-09-29T03:05:57.677Z,8.76
2018-09-29T03:08:26.358Z,8.77
2018-09-29T03:10:55.045Z,8.67
2018-09-29T03:13:23.745Z,8.64
2018-09-29T03:15:52.506Z,8.76
2018-09-29T03:18:21.295Z,8.62
2018-09-29T03:20:49.980Z,8.55
2018-09-29T03:23:18.770Z,8.49
2018-09-29T03:25:47.455Z,8.47
2018-09-29T03:28:16.168Z,8.53
2018-09-29T03:30:44.833Z,8.60
2018-09-29T03:33:13.550Z,8.63
2018-09-29T03:35:42.212Z,8.58
2018-09-29T03:38:10.882Z,8.52
2018-09-29T03:40:39.897Z,8.48
2018-09-29T03:43:08.566Z,8.45
2018-09-29T03:45:37.256Z,8.45
2018-09-29T03:48:06.067Z,8.41
2018-09-29T03:50:34.856Z,8.40
2018-09-29T03:53:03.631Z,8.38
2018-09-29T03:55:32.433Z,8.35
2018-09-29T03:58:01.059Z,8.32
2018-09-29T04:00:30.043Z,8.27
2018-09-29T04:02:58.917Z,8.27
2018-09-29T04:05:27.607Z,8.21
2018-09-29T04:07:56.349Z,8.20
2018-09-29T04:10:25.080Z,8.08
2018-09-29T04:12:53.733Z,8.14
2018-09-29T04:15:22.561Z,8.16
2018-09-29T04:17:51.303Z,8.13
2018-09-29T04:20:20.216Z,8.08
2018-09-29T04:22:48.967Z,8.07
2018-09-29T04:25:17.745Z,8.01
2018-09-29T04:27:46.493Z,7.98
2018-09-29T04:30:15.297Z,7.98
2018-09-29T04:32:44.159Z,7.91
2018-09-29T04:35:12.826Z,7.81
2018-09-29T04:37:41.577Z,7.79
2018-09-29T04:40:10.389Z,7.76
2018-09-29T04:42:39.082Z,7.61
2018-09-29T04:45:07.985Z,7.51
2018-09-29T04:47:36.777Z,7.47
2018-09-29T04:50:05.657Z,7.44
2018-09-29T04:52:34.445Z,7.42
2018-09-29T04:55:03.085Z,7.35
2018-09-29T04:57:32.042Z,7.40
2018-09-29T05:00:00.709Z,7.40
2018-09-29T05:02:29.489Z,7.24
2018-09-29T05:04:58.145Z,7.25
2018-09-29T05:07:26.885Z,7.34
2018-09-29T05:09:55.592Z,7.32
2018-09-29T05:12:24.353Z,7.33
2018-09-29T05:14:53.085Z,7.33
2018-09-29T05:17:21.921Z,7.35
2018-09-29T05:19:50.573Z,7.34
2018-09-29T05:22:19.424Z,7.31
2018-09-29T05:24:48.189Z,7.30
2018-09-29T05:27:16.857Z,7.30
2018-09-29T05:29:45.701Z,7.30
2018-09-29T05:32:14.357Z,7.31
2018-09-29T05:34:43.149Z,7.32
2018-09-29T05:37:12.369Z,7.36
2018-09-29T05:39:41.017Z,7.39
2018-09-29T05:42:09.717Z,7.39
2018-09-29T05:44:38.630Z,7.41
2018-09-29T05:47:07.286Z,7.35
2018-09-29T05:49:36.070Z,7.42
2018-09-29T05:52:04.934Z,7.48
2018-09-29T05:54:34.004Z,7.52
2018-09-29T05:57:03.209Z,7.53
2018-09-29T05:59:31.901Z,7.53
2018-09-29T06:02:00.593Z,7.50
2018-09-29T06:04:29.838Z,7.59
2018-09-29T06:06:58.681Z,7.65
2018-09-29T06:09:27.352Z,7.68
2018-09-29T06:11:56.198Z,7.68
2018-09-29T06:14:24.910Z,7.69
2018-09-29T06:16:53.563Z,7.58
2018-09-29T06:19:22.501Z,7.62
2018-09-29T06:21:51.260Z,7.76
2018-09-29T06:24:20.310Z,7.86
2018-09-29T06:26:49.001Z,7.95
2018-09-29T06:29:17.680Z,7.88
2018-09-29T06:31:46.410Z,7.87
2018-09-29T06:34:15.607Z,7.85
2018-09-29T06:36:44.381Z,7.87
2018-09-29T06:39:13.113Z,7.81
2018-09-29T06:41:41.780Z,7.90
2018-09-29T06:44:10.429Z,7.99
2018-09-29T06:46:39.105Z,7.93
2018-09-29T06:49:07.738Z,8.03
2018-09-29T06:51:36.365Z,8.11
2018-09-29T06:54:05.236Z,8.11
2018-09-29T06:56:33.873Z,8.15
2018-09-29T06:59:02.681Z,8.26
2018-09-29T07:01:31.410Z,8.30
2018-09-29T07:04:00.084Z,8.35
2018-09-29T07:06:29.225Z,8.37
2018-09-29T07:08:57.909Z,8.34
2018-09-29T07:11:26.642Z,8.42
2018-09-29T07:13:55.748Z,8.40
2018-09-29T07:16:24.413Z,8.53
2018-09-29T07:18:53.327Z,8.57
2018-09-29T07:21:22.092Z,8.79
2018-09-29T07:23:50.725Z,8.87
2018-09-29T07:26:19.486Z,9.04
2018-09-29T07:28:48.193Z,9.01
2018-09-29T07:31:17.248Z,9.04
2018-09-29T07:33:45.945Z,9.12
2018-09-29T07:36:14.621Z,9.10
2018-09-29T07:38:43.559Z,9.27
2018-09-29T07:41:12.383Z,9.37
2018-09-29T07:43:41.348Z,9.50
2018-09-29T07:46:10.084Z,9.71
2018-09-29T07:48:38.726Z,9.69
2018-09-29T07:51:07.465Z,9.82
2018-09-29T07:53:36.175Z,9.96
2018-09-29T07:56:05.638Z,10.02
2018-09-29T07:58:35.978Z,10.19
2018-09-29T08:01:04.679Z,10.39
2018-09-29T08:03:33.458Z,10.46
2018-09-29T08:06:02.258Z,10.58
2018-09-29T08:08:31.176Z,10.74
2018-09-29T08:10:59.832Z,10.79
2018-09-29T08:13:28.513Z,10.86
2018-09-29T08:15:57.432Z,11.01
2018-09-29T08:18:26.166Z,11.11
2018-09-29T08:20:54.838Z,11.21
2018-09-29T08:23:23.840Z,11.34
2018-09-29T08:25:52.549Z,11.50
2018-09-29T08:28:21.361Z,11.62
2018-09-29T08:30:50.038Z,11.66
2018-09-29T08:33:18.740Z,11.80
2018-09-29T08:35:47.740Z,11.95
2018-09-29T08:38:16.600Z,12.05
2018-09-29T08:40:45.309Z,12.13
2018-09-29T08:43:14.129Z,12.02
2018-09-29T08:45:42.925Z,12.16
2018-09-29T08:48:11.614Z,12.21
2018-09-29T08:50:40.506Z,12.34
2018-09-29T08:53:09.266Z,12.31
2018-09-29T08:55:37.970Z,12.41
2018-09-29T08:58:06.659Z,12.34
2018-09-29T09:00:35.623Z,12.39
2018-09-29T09:03:04.389Z,12.60
2018-09-29T09:05:33.170Z,12.67
2018-09-29T09:08:02.148Z,12.63
2018-09-29T09:10:31.059Z,12.69
2018-09-29T09:12:59.774Z,12.76
2018-09-29T09:15:28.529Z,12.88
2018-09-29T09:17:57.207Z,13.02
2018-09-29T09:20:25.928Z,13.01
2018-09-29T09:22:54.750Z,13.15
2018-09-29T09:25:23.423Z,12.90
2018-09-29T09:27:52.053Z,13.00
2018-09-29T09:30:20.988Z,13.13
2018-09-29T09:32:49.796Z,13.27
2018-09-29T09:35:18.569Z,13.39
2018-09-29T09:37:47.249Z,13.36
2018-09-29T09:40:15.926Z,13.56
2018-09-29T09:42:44.741Z,13.54
2018-09-29T09:45:13.536Z,13.62
2018-09-29T09:47:42.201Z,13.68
2018-09-29T09:50:10.931Z,13.73
2018-09-29T09:52:39.934Z,13.90
2018-09-29T09:55:08.881Z,13.81
2018-09-29T09:57:37.701Z,13.92
2018-09-29T10:00:06.574Z,13.99
2018-09-29T10:02:40.454Z,13.99
2018-09-29T10:05:09.254Z,14.01
2018-09-29T10:07:38.190Z,14.17
2018-09-29T10:10:06.973Z,14.31
2018-09-29T10:12:35.727Z,14.31
2018-09-29T10:15:04.715Z,14.29
2018-09-29T10:17:33.613Z,14.27
2018-09-29T10:20:02.750Z,14.19
2018-09-29T10:22:31.478Z,14.33
2018-09-29T10:25:00.137Z,14.39
2018-09-29T10:27:29.023Z,14.51
2018-09-29T10:29:57.702Z,14.53
2018-09-29T10:32:26.783Z,14.59
2018-09-29T10:34:55.649Z,14.64
2018-09-29T10:37:24.517Z,14.61
2018-09-29T10:39:53.250Z,14.64
2018-09-29T10:42:21.950Z,14.59
2018-09-29T10:44:50.605Z,14.52
2018-09-29T10:47:19.409Z,14.65
2018-09-29T10:49:51.024Z,14.81
2018-09-29T10:52:19.819Z,14.89
2018-09-29T10:54:48.950Z,14.83
2018-09-29T10:57:17.705Z,14.96
2018-09-29T10:59:46.554Z,15.03
2018-09-29T11:02:15.274Z,14.90
2018-09-29T11:04:43.967Z,14.99
2018-09-29T11:07:12.993Z,14.98
2018-09-29T11:09:41.651Z,14.92
2018-09-29T11:12:10.369Z,14.99
2018-09-29T11:14:39.248Z,15.05
2018-09-29T11:17:07.926Z,15.19
2018-09-29T11:19:36.729Z,15.39
2018-09-29T11:22:05.634Z,15.67
2018-09-29T11:24:34.711Z,15.84
2018-09-29T11:27:03.596Z,15.77
2018-09-29T11:29:32.394Z,15.96
2018-09-29T11:32:01.195Z,15.99
2018-09-29T11:34:29.869Z,16.23
2018-09-29T11:36:58.721Z,16.64
2018-09-29T11:39:27.522Z,16.93
2018-09-29T11:41:56.364Z,17.21
2018-09-29T11:44:25.448Z,17.33
2018-09-29T11:46:54.150Z,17.67
2018-09-29T11:49:22.882Z,17.51
2018-09-29T11:51:51.708Z,17.53
2018-09-29T11:54:20.397Z,18.03
2018-09-29T11:56:49.178Z,18.71
2018-09-29T11:59:18.073Z,19.44
2018-09-29T12:01:46.850Z,19.66
2018-09-29T12:04:15.610Z,20.17
2018-09-29T12:06:44.413Z,20.45
2018-09-29T12:09:14.085Z,20.84
2018-09-29T12:11:43.333Z,21.78
2018-09-29T12:14:12.032Z,22.93
2018-09-29T12:16:40.808Z,23.61
2018-09-29T12:19:09.496Z,24.16
2018-09-29T12:21:38.153Z,24.38
2018-09-29T12:24:06.991Z,24.40
2018-09-29T12:26:36.213Z,24.88
2018-09-29T12:29:04.889Z,25.78
2018-09-29T12:31:33.640Z,26.23
2018-09-29T12:34:02.506Z,26.44
2018-09-29T12:36:32.726Z,26.71
2018-09-29T12:39:01.671Z,27.29
2018-09-29T12:41:30.462Z,25.91
2018-09-29T12:43:59.165Z,26.44
2018-09-29T12:46:28.301Z,27.36
2018-09-29T12:48:57.006Z,26.93
2018-09-29T12:51:26.062Z,26.55
2018-09-29T12:53:54.756Z,27.91
2018-09-29T12:56:23.386Z,28.13
2018-09-29T12:58:52.164Z,28.23
2018-09-29T13:01:20.983Z,28.44
2018-09-29T13:03:49.854Z,28.59
2018-09-29T13:06:18.766Z,28.50
2018-09-29T13:08:47.553Z,28.98
2018-09-29T13:11:16.234Z,29.71
2018-09-29T13:13:44.978Z,29.33
2018-09-29T13:16:13.910Z,29.19
2018-09-29T13:18:42.570Z,29.79
2018-09-29T13:21:11.499Z,30.43
2018-09-29T13:23:40.258Z,31.18
2018-09-29T13:26:08.993Z,31.02
2018-09-29T13:28:37.853Z,30.65
2018-09-29T13:31:06.598Z,31.59
2018-09-29T13:33:35.361Z,32.24
2018-09-29T13:36:04.229Z,31.64
2018-09-29T13:38:32.964Z,31.10
2018-09-29T13:41:01.666Z,31.55
2018-09-29T13:43:30.362Z,32.28
2018-09-29T13:45:59.316Z,32.27
2018-09-29T13:48:28.382Z,32.49
2018-09-29T13:50:57.070Z,32.91
2018-09-29T13:53:25.821Z,32.47
2018-09-29T13:55:54.643Z,32.55
2018-09-29T13:58:23.603Z,30.99
2018-09-29T14:00:52.624Z,31.47
2018-09-29T14:03:21.379Z,31.24
2018-09-29T14:05:50.070Z,29.68
2018-09-29T14:08:18.986Z,28.48
2018-09-29T14:10:47.869Z,27.11
2018-09-29T14:13:17.295Z,25.65
2018-09-29T14:15:46.048Z,24.06
2018-09-29T14:18:14.709Z,23.55
2018-09-29T14:20:43.379Z,23.09
2018-09-29T14:23:12.023Z,22.34
2018-09-29T14:25:40.857Z,21.52
2018-09-29T14:28:16.245Z,20.90
2018-09-29T14:30:45.259Z,20.33
2018-09-29T14:33:14.237Z,20.11
2018-09-29T14:35:42.890Z,19.64
2018-09-29T14:38:11.965Z,19.16
2018-09-29T14:40:40.739Z,18.93
2018-09-29T14:43:09.630Z,18.67
2018-09-29T14:45:38.661Z,18.47
2018-09-29T14:48:07.539Z,18.10
2018-09-29T14:50:36.361Z,17.96
2018-09-29T14:53:05.223Z,18.00
2018-09-29T14:55:34.242Z,17.98
2018-09-29T14:58:02.970Z,18.05
2018-09-29T15:00:31.736Z,17.99
2018-09-29T15:03:00.629Z,17.93
2018-09-29T15:05:29.306Z,17.88
2018-09-29T15:07:58.139Z,17.67
2018-09-29T15:10:26.939Z,17.50
2018-09-29T15:12:55.842Z,17.41
2018-09-29T15:15:24.543Z,17.35
2018-09-29T15:17:53.250Z,17.35
2018-09-29T15:20:22.181Z,17.23
2018-09-29T15:22:50.945Z,17.05
2018-09-29T15:25:19.667Z,16.98
2018-09-29T15:27:48.748Z,16.93
2018-09-29T15:30:17.442Z,16.81
2018-09-29T15:32:46.073Z,16.73
2018-09-29T15:35:14.823Z,16.72
2018-09-29T15:37:43.604Z,16.65
2018-09-29T15:40:12.399Z,16.62
2018-09-29T15:42:41.195Z,16.57
2018-09-29T15:45:10.546Z,16.47
2018-09-29T15:47:39.277Z,16.43
2018-09-29T15:50:08.653Z,16.37
2018-09-29T15:52:37.539Z,16.32
2018-09-29T15:55:06.624Z,16.27
2018-09-29T15:57:35.534Z,16.20
2018-09-29T16:00:04.530Z,16.11
2018-09-29T16:02:33.417Z,16.11
2018-09-29T16:05:02.206Z,16.04
2018-09-29T16:07:30.997Z,16.07
2018-09-29T16:09:59.929Z,16.10
2018-09-29T16:12:28.908Z,16.00
2018-09-29T16:14:57.897Z,15.95
2018-09-29T16:17:27.015Z,15.85
2018-09-29T16:19:55.806Z,15.76
2018-09-29T16:22:24.524Z,15.75
2018-09-29T16:24:53.365Z,15.72
2018-09-29T16:27:22.151Z,15.68
2018-09-29T16:29:50.809Z,15.54
2018-09-29T16:32:20.032Z,15.53
2018-09-29T16:34:48.805Z,15.46
2018-09-29T16:37:17.805Z,15.37
2018-09-29T16:39:46.509Z,15.26
2018-09-29T16:42:15.249Z,15.22
2018-09-29T16:44:44.084Z,15.12
2018-09-29T16:47:12.810Z,15.07
2018-09-29T16:49:41.649Z,14.99
2018-09-29T16:52:10.575Z,14.90
2018-09-29T16:54:39.299Z,14.86
2018-09-29T16:57:08.121Z,14.77
2018-09-29T16:59:36.921Z,14.71
2018-09-29T17:02:05.593Z,14.61
2018-09-29T17:04:34.472Z,14.55
2018-09-29T17:07:03.087Z,14.43
2018-09-29T17:09:32.181Z,14.37
2018-09-29T17:12:00.926Z,14.29
2018-09-29T17:14:29.613Z,14.21
2018-09-29T17:16:58.313Z,14.15
2018-09-29T17:19:27.033Z,14.12
2018-09-29T17:21:55.872Z,14.04
2018-09-29T17:24:24.508Z,13.98
2018-09-29T17:26:53.282Z,13.93
2018-09-29T17:29:21.981Z,13.85
2018-09-29T17:31:50.826Z,13.79
2018-09-29T17:34:19.761Z,13.71
2018-09-29T17:36:48.554Z,13.64
2018-09-29T17:39:17.333Z,13.59
2018-09-29T17:41:46.117Z,13.54
2018-09-29T17:44:14.774Z,13.47
2018-09-29T17:46:43.839Z,13.43
2018-09-29T17:49:12.489Z,13.41
2018-09-29T17:51:41.215Z,13.35
2018-09-29T17:54:09.947Z,13.29
2018-09-29T17:56:39.058Z,13.21
2018-09-29T17:59:08.235Z,13.11
2018-09-29T18:01:36.877Z,13.06
2018-09-29T18:04:05.938Z,13.06
2018-09-29T18:06:34.564Z,13.00
2018-09-29T18:09:03.811Z,12.95
2018-09-29T18:11:33.224Z,12.94
2018-09-29T18:14:01.878Z,12.95
2018-09-29T18:16:30.814Z,12.87
2018-09-29T18:18:59.523Z,12.83
2018-09-29T18:21:28.307Z,12.76
2018-09-29T18:23:57.434Z,12.78
2018-09-29T18:26:26.559Z,12.73
2018-09-29T18:28:55.683Z,12.71
2018-09-29T18:31:24.460Z,12.63
2018-09-29T18:33:53.158Z,12.62
2018-09-29T18:36:22.052Z,12.55
2018-09-29T18:38:51.054Z,12.46
2018-09-29T18:41:19.797Z,12.45
2018-09-29T18:43:48.477Z,12.43
2018-09-29T18:46:17.337Z,12.42
2018-09-29T18:48:46.123Z,12.35
2018-09-29T18:51:14.898Z,12.29
2018-09-29T18:53:43.677Z,12.26
2018-09-29T18:56:12.408Z,12.23
2018-09-29T18:58:41.113Z,12.16
2018-09-29T19:01:09.906Z,12.15
2018-09-29T19:03:38.626Z,12.12
2018-09-29T19:06:07.612Z,12.03
2018-09-29T19:08:36.436Z,11.95
2018-09-29T19:11:05.189Z,11.88
2018-09-29T19:13:33.933Z,11.85
2018-09-29T19:16:03.090Z,11.78
2018-09-29T19:18:31.760Z,11.75
2018-09-29T19:21:00.523Z,11.70
2018-09-29T19:23:29.203Z,11.70
2018-09-29T19:25:57.970Z,11.64
2018-09-29T19:28:26.640Z,11.59
2018-09-29T19:30:55.321Z,11.54
2018-09-29T19:33:24.094Z,11.48
2018-09-29T19:35:52.941Z,11.44
2018-09-29T19:38:21.805Z,11.45
2018-09-29T19:40:50.521Z,11.40
2018-09-29T19:43:19.218Z,11.35
2018-09-29T19:45:48.101Z,11.28
2018-09-29T19:48:16.721Z,11.29
2018-09-29T19:50:45.458Z,11.30
2018-09-29T19:53:14.185Z,11.29
2018-09-29T19:55:43.004Z,11.24
2018-09-29T19:58:11.737Z,11.23
2018-09-29T20:00:40.395Z,11.17
2018-09-29T20:03:09.109Z,11.20
2018-09-29T20:05:38.355Z,11.18
2018-09-29T20:08:07.144Z,11.13
2018-09-29T20:10:35.895Z,11.09
2018-09-29T20:13:04.593Z,11.07
2018-09-29T20:15:33.363Z,11.04
2018-09-29T20:18:02.098Z,11.01
2018-09-29T20:20:30.949Z,10.88
2018-09-29T20:22:59.733Z,10.80
2018-09-29T20:25:28.425Z,10.79
2018-09-29T20:27:57.358Z,10.75
2018-09-29T20:30:26.060Z,10.67
2018-09-29T20:32:54.799Z,10.66
2018-09-29T20:35:23.486Z,10.64
2018-09-29T20:37:52.158Z,10.62
2018-09-29T20:40:21.195Z,10.60
2018-09-29T20:42:49.883Z,10.55
2018-09-29T20:45:18.626Z,10.48
2018-09-29T20:47:47.685Z,10.40
2018-09-29T20:50:16.513Z,10.36
2018-09-29T20:52:45.598Z,10.33
2018-09-29T20:55:14.311Z,10.27
2018-09-29T20:57:43.131Z,10.23
2018-09-29T21:00:11.957Z,10.25
2018-09-29T21:02:40.714Z,10.20
2018-09-29T21:05:09.482Z,10.19
2018-09-29T21:07:38.210Z,10.16
2018-09-29T21:10:06.959Z,10.14
2018-09-29T21:12:35.869Z,10.12
2018-09-29T21:15:04.623Z,10.08
2018-09-29T21:17:33.254Z,9.98
2018-09-29T21:20:02.108Z,9.96
2018-09-29T21:22:30.846Z,9.96
2018-09-29T21:24:59.551Z,9.96
2018-09-29T21:27:28.253Z,9.94
2018-09-29T21:29:57.051Z,9.90
2018-09-29T21:32:25.726Z,9.88
2018-09-29T21:34:54.534Z,9.85
2018-09-29T21:37:23.243Z,9.80
2018-09-29T21:39:51.978Z,9.78
2018-09-29T21:42:20.672Z,9.78
2018-09-29T21:44:49.380Z,9.74
2018-09-29T21:47:18.030Z,9.78
2018-09-29T21:49:46.873Z,9.70
2018-09-29T21:52:15.569Z,9.73
2018-09-29T21:54:44.429Z,9.77
2018-09-29T21:57:13.139Z,9.77
2018-09-29T21:59:41.905Z,9.72
2018-09-29T22:02:10.714Z,9.71
2018-09-29T22:04:39.580Z,9.69
2018-09-29T22:07:08.248Z,9.63
2018-09-29T22:09:36.906Z,9.54
2018-09-29T22:12:05.567Z,9.45
2018-09-29T22:14:34.349Z,9.47
2018-09-29T22:17:03.345Z,9.44
2018-09-29T22:19:32.111Z,9.45
2018-09-29T22:22:01.106Z,9.38
2018-09-29T22:24:29.909Z,9.29
2018-09-29T22:26:58.562Z,9.28
2018-09-29T22:29:27.397Z,9.29
2018-09-29T22:31:56.193Z,9.22
2018-09-29T22:34:24.934Z,9.28
2018-09-29T22:36:53.677Z,9.22
2018-09-29T22:39:22.468Z,9.23
2018-09-29T22:41:51.345Z,9.12
2018-09-29T22:44:20.002Z,9.10
2018-09-29T22:46:48.724Z,9.04
2018-09-29T22:49:17.534Z,9.04
2018-09-29T22:51:46.327Z,8.96
2018-09-29T22:54:15.185Z,8.84
2018-09-29T22:56:43.933Z,8.74
2018-09-29T22:59:12.722Z,8.73
2018-09-29T23:01:41.472Z,8.76
2018-09-29T23:04:10.218Z,8.74
2018-09-29T23:06:39.014Z,8.71
2018-09-29T23:09:10.366Z,8.74
2018-09-29T23:11:39.070Z,8.68
2018-09-29T23:14:08.094Z,8.66
2018-09-29T23:16:36.861Z,8.56
2018-09-29T23:19:05.913Z,8.60
2018-09-29T23:21:34.597Z,8.53
2018-09-29T23:24:03.422Z,8.47
2018-09-29T23:26:32.160Z,8.44
2018-09-29T23:29:00.842Z,8.40
2018-09-29T23:31:29.519Z,8.40
2018-09-29T23:33:58.173Z,8.36
2018-09-29T23:36:26.891Z,8.42
2018-09-29T23:38:55.613Z,8.48
2018-09-29T23:41:24.390Z,8.41
2018-09-29T23:43:53.356Z,8.41
2018-09-29T23:46:22.119Z,8.43
2018-09-29T23:48:50.910Z,8.40
2018-09-29T23:51:19.897Z,8.33
2018-09-29T23:53:48.665Z,8.37
2018-09-29T23:56:17.682Z,8.33
2018-09-29T23:58:46.373Z,8.40
